Time;durP1;ratioP1;P1;durP2;ratioP2;P2;SDS_P1;SDS_P2;PMS_P1;PMS_P2;Temp;Humidity;BMP_temperature;BMP_pressure;BME280_temperature;BME280_humidity;BME280_pressure;Samples;Min_cycle;Max_cycle;Signal;HPM_P1;HPM_P2
2021/01/18 00:01:04;;;;;;;45.48;21.57;;;;;;;-14.06;60.83;99345.25;1716261;82;22261;-64
2021/01/18 00:03:34;;;;;;;48.63;22.65;;;;;;;-14.02;60.68;99348.39;1716216;83;21213;-63
2021/01/18 00:06:04;;;;;;;47.70;21.07;;;;;;;-14.04;60.49;99346.19;1716289;82;21182;-64
2021/01/18 00:08:32;;;;;;;45.65;19.98;;;;;;;-14.16;60.62;99350.91;1716332;83;21072;-63
2021/01/18 00:11:02;;;;;;;41.68;18.85;;;;;;;-14.16;60.92;99354.66;1716361;83;21092;-63
2021/01/18 00:13:30;;;;;;;35.73;18.27;;;;;;;-14.19;60.79;99354.52;1716272;83;22310;-63
2021/01/18 00:15:59;;;;;;;46.90;21.00;;;;;;;-14.25;60.98;99355.43;1716306;83;21504;-63
2021/01/18 00:18:29;;;;;;;39.88;19.10;;;;;;;-14.27;61.02;99355.73;1716276;82;21560;-63
2021/01/18 00:20:58;;;;;;;44.08;20.80;;;;;;;-14.25;60.99;99356.68;1688814;83;21571;-63
2021/01/18 00:23:25;;;;;;;46.45;22.98;;;;;;;-14.26;60.95;99356.20;1716265;83;21576;-62
2021/01/18 00:25:54;;;;;;;49.83;23.07;;;;;;;-14.24;61.00;99358.40;1716254;82;22192;-62
2021/01/18 00:28:23;;;;;;;54.00;26.07;;;;;;;-14.21;60.82;99364.42;1716305;83;21178;-62
2021/01/18 00:30:51;;;;;;;60.12;27.35;;;;;;;-14.16;60.79;99368.40;1716283;83;21489;-63
2021/01/18 00:33:20;;;;;;;57.33;26.48;;;;;;;-14.12;60.69;99367.41;1716330;83;21075;-62
2021/01/18 00:35:48;;;;;;;63.25;27.22;;;;;;;-14.16;60.47;99363.02;1716328;83;21087;-63
2021/01/18 00:38:16;;;;;;;59.15;26.15;;;;;;;-14.20;60.57;99358.66;1716240;82;22487;-64
2021/01/18 00:40:44;;;;;;;62.15;27.32;;;;;;;-14.21;60.65;99356.07;1716288;83;21142;-63
2021/01/18 00:43:12;;;;;;;51.53;24.07;;;;;;;-14.20;60.68;99358.66;1716265;83;21501;-63
2021/01/18 00:45:40;;;;;;;52.30;24.47;;;;;;;-14.18;60.53;99358.70;1706888;83;22056;-63
2021/01/18 00:48:09;;;;;;;65.35;30.30;;;;;;;-14.18;60.36;99359.95;1706325;84;21500;-63
2021/01/18 00:50:37;;;;;;;53.28;26.12;;;;;;;-14.24;60.19;99348.02;1706328;82;21980;-63
2021/01/18 00:53:05;;;;;;;51.55;25.25;;;;;;;-14.31;60.43;99349.31;1706304;84;21544;-63
2021/01/18 00:55:34;;;;;;;59.65;28.50;;;;;;;-14.31;60.36;99350.56;1706445;83;21619;-63
2021/01/18 00:58:20;;;;;;;55.33;26.40;;;;;;;-14.38;60.28;99351.39;1706513;84;21536;-62
2021/01/18 01:00:53;;;;;;;53.60;25.60;;;;;;;-14.41;60.30;99353.78;1680231;84;21576;-63
2021/01/18 01:03:23;;;;;;;53.20;26.48;;;;;;;-14.45;60.16;99349.39;1706596;84;22178;-63
2021/01/18 01:05:51;;;;;;;52.98;25.90;;;;;;;-14.51;60.04;99352.80;1706458;84;21509;-64
2021/01/18 01:08:19;;;;;;;57.08;25.80;;;;;;;-14.59;60.10;99354.03;1706549;84;21505;-63
2021/01/18 01:10:47;;;;;;;50.52;23.75;;;;;;;-14.65;60.08;99349.55;1706554;84;21154;-64
2021/01/18 01:13:15;;;;;;;52.60;22.42;;;;;;;-14.68;60.10;99358.11;1706462;84;21611;-64
2021/01/18 01:15:44;;;;;;;49.25;22.30;;;;;;;-14.71;60.19;99360.05;1706430;84;21471;-63
2021/01/18 01:18:12;;;;;;;47.88;21.17;;;;;;;-14.72;60.27;99363.70;1706423;82;21513;-64
2021/01/18 01:20:40;;;;;;;62.30;27.40;;;;;;;-14.69;60.22;99367.23;1706540;84;21072;-64
2021/01/18 01:23:08;;;;;;;60.85;26.12;;;;;;;-14.68;60.18;99362.72;1706445;84;21489;-63
2021/01/18 01:25:36;;;;;;;57.15;25.62;;;;;;;-14.65;60.06;99361.64;1706457;83;21123;-64
2021/01/18 01:28:05;;;;;;;55.63;24.67;;;;;;;-14.66;59.81;99364.05;1706387;84;21654;-63
2021/01/18 01:30:33;;;;;;;52.73;24.67;;;;;;;-14.80;59.51;99364.93;1706412;84;21093;-63
2021/01/18 01:33:02;;;;;;;50.40;23.42;;;;;;;-14.95;59.70;99364.91;1706502;83;21473;-63
2021/01/18 01:35:31;;;;;;;60.23;27.45;;;;;;;-14.99;59.81;99369.27;1706438;82;21090;-64
2021/01/18 01:37:59;;;;;;;69.12;30.77;;;;;;;-15.01;59.94;99369.19;1706481;84;21492;-63
2021/01/18 01:40:28;;;;;;;71.67;29.35;;;;;;;-14.97;60.07;99375.18;1706429;83;21392;-64
2021/01/18 01:42:56;;;;;;;67.20;27.15;;;;;;;-15.00;59.95;99377.53;1706428;84;21534;-63
2021/01/18 01:45:24;;;;;;;67.47;28.27;;;;;;;-15.00;60.04;99375.90;1715737;83;21568;-63
2021/01/18 01:47:56;;;;;;;59.58;26.95;;;;;;;-15.05;60.04;99367.67;1719981;83;21485;-63
2021/01/18 01:50:31;;;;;;;66.12;27.05;;;;;;;-15.11;59.98;99369.80;1720117;82;26534;-63
2021/01/18 01:53:07;;;;;;;57.60;25.32;;;;;;;-15.20;59.95;99371.78;1720024;82;21500;-63
2021/01/18 01:55:35;;;;;;;45.55;20.23;;;;;;;-15.29;60.12;99377.48;1719952;82;21127;-63
2021/01/18 01:58:05;;;;;;;42.53;19.27;;;;;;;-15.35;60.24;99374.23;1719962;83;21460;-64
2021/01/18 02:00:37;;;;;;;38.75;19.80;;;;;;;-15.36;60.32;99375.86;1694008;83;21166;-63
2021/01/18 02:03:12;;;;;;;;;;;;;;;-15.36;60.33;99378.36;1722649;82;21115;-62
2021/01/18 02:05:40;;;;;;;46.13;18.62;;;;;;;-15.34;60.26;99380.56;1720112;82;22197;-62
2021/01/18 02:08:09;;;;;;;50.75;21.12;;;;;;;-15.29;60.48;99381.22;1719991;83;21540;-62
2021/01/18 02:10:38;;;;;;;42.48;18.90;;;;;;;-15.19;60.51;99381.86;1720069;83;21121;-63
2021/01/18 02:13:31;;;;;;;37.28;16.67;;;;;;;-15.16;60.22;99385.75;1719913;83;21119;-63
2021/01/18 02:16:38;;;;;;;36.53;15.58;;;;;;;-15.24;60.23;99378.61;1719992;83;21214;-62
2021/01/18 02:19:36;;;;;;;34.48;16.02;;;;;;;-15.30;60.35;99381.98;1719986;83;22149;-62
2021/01/18 02:22:49;;;;;;;43.33;19.32;;;;;;;-15.32;60.41;99382.28;1719986;83;21575;-63
2021/01/18 02:25:52;;;;;;;41.53;18.32;;;;;;;-15.35;60.52;99386.31;1720131;83;21555;-63
2021/01/18 02:28:29;;;;;;;;;;;;;;;-15.28;60.50;99385.05;1722464;82;21083;-63
2021/01/18 02:31:53;;;;;;;49.53;20.48;;;;;;;-15.21;60.36;99383.78;1719996;83;20223;-62
2021/01/18 02:34:39;;;;;;;52.55;21.35;;;;;;;-15.19;60.24;99385.98;1719954;83;22368;-63
2021/01/18 02:37:37;;;;;;;51.63;21.87;;;;;;;-15.23;60.07;99379.95;1719957;83;21561;-63
2021/01/18 02:40:22;;;;;;;55.40;23.83;;;;;;;-15.28;59.92;99375.08;1719939;83;21547;-64
2021/01/18 02:42:51;;;;;;;51.63;24.47;;;;;;;-15.33;60.06;99392.64;1695076;83;21107;-63
2021/01/18 02:45:22;;;;;;;56.18;24.90;;;;;;;-15.31;59.96;99397.72;1719792;83;21068;-63
2021/01/18 02:47:50;;;;;;;59.85;24.98;;;;;;;-15.29;60.00;99399.92;1719940;83;21376;-63
2021/01/18 02:50:18;;;;;;;58.58;25.77;;;;;;;-15.27;59.89;99399.24;1719914;82;21091;-62
2021/01/18 02:52:48;;;;;;;55.05;23.85;;;;;;;-15.30;59.75;99394.07;1693832;83;21143;-63
2021/01/18 02:55:17;;;;;;;53.60;23.25;;;;;;;-15.40;59.76;99393.94;1719982;83;21136;-62
2021/01/18 02:57:52;;;;;;;44.27;21.27;;;;;;;-15.51;59.74;99391.17;1720031;83;21504;-62
2021/01/18 03:00:25;;;;;;;;;;;;;;;-15.60;59.78;99393.17;1722268;83;21316;-63
2021/01/18 03:03:22;;;;;;;37.15;17.98;;;;;;;-15.67;59.96;99399.80;1719910;83;20222;-62
2021/01/18 03:06:14;;;;;;;41.53;19.07;;;;;;;-15.69;60.09;99395.11;1719991;82;21517;-62
2021/01/18 03:08:59;;;;;;;46.40;18.00;;;;;;;-15.65;60.21;99397.41;1873632;76;28769;-63
2021/01/18 03:11:36;;;;;;;44.65;17.52;;;;;;;-15.65;60.41;99397.02;1841621;78;21037;-62
2021/01/18 03:14:13;;;;;;;34.60;15.65;;;;;;;-15.58;60.30;99394.52;1841485;77;21190;-63
2021/01/18 03:16:44;;;;;;;33.73;14.93;;;;;;;-15.52;60.15;99386.10;1841657;78;21490;-63
2021/01/18 03:19:12;;;;;;;32.38;15.68;;;;;;;-15.50;59.95;99378.33;1812000;78;21148;-63
2021/01/18 03:21:47;;;;;;;42.05;18.20;;;;;;;-15.52;59.72;99381.11;1841587;78;20931;-63
2021/01/18 03:24:24;;;;;;;34.13;16.87;;;;;;;-15.52;59.68;99386.96;1841617;77;21093;-63
2021/01/18 03:26:51;;;;;;;37.60;15.50;;;;;;;-15.48;59.84;99390.50;1841635;78;22437;-63
2021/01/18 03:29:19;;;;;;;34.63;14.63;;;;;;;-15.43;59.81;99387.91;1841556;77;21481;-63
2021/01/18 03:31:50;;;;;;;36.98;16.17;;;;;;;-15.40;59.66;99389.34;1841572;77;21474;-63
2021/01/18 03:34:18;;;;;;;32.90;14.58;;;;;;;-15.40;59.60;99390.58;1841674;78;21482;-63
2021/01/18 03:36:47;;;;;;;39.88;16.23;;;;;;;-15.44;59.38;99388.28;1841558;77;21482;-63
2021/01/18 03:39:15;;;;;;;33.78;17.40;;;;;;;-15.49;59.18;99388.78;1841643;77;22318;-62
2021/01/18 03:41:46;;;;;;;35.98;16.27;;;;;;;-15.56;59.21;99386.33;1841498;78;21557;-62
2021/01/18 03:44:14;;;;;;;37.67;16.23;;;;;;;-15.57;59.27;99384.61;1841533;77;21140;-62
2021/01/18 03:46:46;;;;;;;37.38;15.10;;;;;;;-15.56;59.43;99396.30;1841517;77;21566;-62
2021/01/18 03:49:14;;;;;;;;;;;;;;;-15.51;59.38;99387.83;1844305;78;21105;-62
2021/01/18 03:51:42;;;;;;;32.53;15.10;;;;;;;-15.60;59.30;99387.33;1812137;78;21979;-62
2021/01/18 03:54:10;;;;;;;31.25;13.98;;;;;;;-15.62;59.61;99394.72;1808510;79;21501;-62
2021/01/18 03:56:41;;;;;;;32.35;14.93;;;;;;;-15.55;59.57;99396.75;1808473;79;21066;-62
2021/01/18 03:59:09;;;;;;;30.70;14.80;;;;;;;-15.48;59.56;99406.33;1808548;79;21068;-62
2021/01/18 04:01:39;;;;;;;31.12;14.53;;;;;;;-15.43;59.45;99406.60;1808508;79;21446;-62
2021/01/18 04:04:07;;;;;;;26.62;12.40;;;;;;;-15.40;59.42;99408.03;1808460;78;21358;-62
2021/01/18 04:06:37;;;;;;;26.52;12.68;;;;;;;-15.37;59.27;99406.94;1808493;79;21513;-63
2021/01/18 04:09:05;;;;;;;22.05;10.65;;;;;;;-15.41;59.18;99398.83;1813986;78;21125;-62
2021/01/18 04:11:33;;;;;;;20.35;11.03;;;;;;;-15.56;59.20;99408.77;1814197;79;21144;-62
2021/01/18 04:14:01;;;;;;;19.55;10.70;;;;;;;-15.77;59.37;99414.57;1814249;78;21623;-63
2021/01/18 04:16:31;;;;;;;23.98;11.08;;;;;;;-15.88;59.66;99413.08;1814294;79;22144;-63
2021/01/18 04:18:59;;;;;;;22.82;10.70;;;;;;;-15.97;60.01;99408.77;1813880;78;21485;-63
2021/01/18 04:21:27;;;;;;;21.00;9.85;;;;;;;-15.99;60.17;99408.22;1813601;79;21470;-62
2021/01/18 04:23:55;;;;;;;21.40;9.58;;;;;;;-16.01;60.22;99408.51;1813627;79;21125;-62
2021/01/18 04:26:25;;;;;;;19.60;10.20;;;;;;;-16.03;60.22;99413.39;1813291;79;21113;-62
2021/01/18 04:28:53;;;;;;;20.23;10.23;;;;;;;-16.10;60.38;99405.05;1813661;79;21247;-63
2021/01/18 04:31:21;;;;;;;20.25;10.48;;;;;;;-16.05;60.45;99413.68;1813624;78;21645;-63
2021/01/18 04:33:49;;;;;;;20.75;9.98;;;;;;;-15.96;60.52;99414.23;1813602;79;21065;-62
2021/01/18 04:36:17;;;;;;;22.67;9.93;;;;;;;-15.88;60.48;99421.80;1813713;79;21049;-63
2021/01/18 04:38:47;;;;;;;20.10;10.30;;;;;;;-15.75;60.23;99423.39;1813632;79;21489;-63
2021/01/18 04:41:16;;;;;;;19.07;10.13;;;;;;;-15.66;59.90;99411.88;1813692;79;22059;-63
2021/01/18 04:43:45;;;;;;;20.08;9.73;;;;;;;-15.67;59.61;99423.86;1813504;79;21572;-63
2021/01/18 04:46:13;;;;;;;20.17;10.50;;;;;;;-15.69;59.67;99425.02;1813578;78;21018;-63
2021/01/18 04:48:42;;;;;;;18.20;8.85;;;;;;;-15.81;59.38;99424.29;1786916;79;21873;-62
2021/01/18 04:51:13;;;;;;;21.37;10.32;;;;;;;-15.91;59.71;99433.20;1813557;77;21473;-63
2021/01/18 04:53:49;;;;;;;16.20;9.25;;;;;;;-16.06;59.66;99432.74;1787828;79;21300;-63
2021/01/18 04:56:37;;;;;;;19.82;9.05;;;;;;;-16.23;59.90;99429.59;1813519;79;21053;-62
2021/01/18 04:59:10;;;;;;;17.90;9.05;;;;;;;-16.33;60.28;99434.75;1813599;79;21474;-63
2021/01/18 05:01:40;;;;;;;18.42;9.45;;;;;;;-16.48;60.42;99426.33;1787435;79;21073;-63
2021/01/18 05:04:13;;;;;;;21.50;10.27;;;;;;;-16.54;60.92;99439.23;1813899;79;21486;-63
2021/01/18 05:06:45;;;;;;;19.32;10.05;;;;;;;-16.56;60.88;99443.25;1813661;78;21334;-63
2021/01/18 05:09:29;;;;;;;21.87;10.32;;;;;;;-16.61;61.00;99443.74;1808329;78;21125;-63
2021/01/18 05:11:58;;;;;;;20.15;8.88;;;;;;;-16.65;61.39;99445.58;1807894;78;21065;-62
2021/01/18 05:14:26;;;;;;;20.43;11.33;;;;;;;-16.63;61.30;99444.05;1807858;78;21062;-63
2021/01/18 05:16:57;;;;;;;23.92;10.38;;;;;;;-16.76;61.40;99448.22;1807884;79;21093;-63
2021/01/18 05:19:26;;;;;;;27.45;12.53;;;;;;;-16.79;61.74;99448.05;1807865;78;21363;-63
2021/01/18 05:21:56;;;;;;;24.43;11.40;;;;;;;-16.81;61.89;99454.55;1807775;78;21121;-63
2021/01/18 05:24:24;;;;;;;31.55;13.03;;;;;;;-16.83;61.90;99462.29;1807919;78;21109;-62
2021/01/18 05:27:03;;;;;;;21.57;10.72;;;;;;;-16.86;62.05;99459.59;1807823;78;21676;-63
2021/01/18 05:29:33;;;;;;;19.95;10.35;;;;;;;-16.80;62.28;99461.63;1807944;79;21577;-62
2021/01/18 05:32:01;;;;;;;19.02;10.68;;;;;;;-16.68;62.28;99459.92;1807837;78;21351;-62
2021/01/18 05:34:31;;;;;;;22.25;11.48;;;;;;;-16.57;62.27;99455.59;1807834;79;21057;-63
2021/01/18 05:36:59;;;;;;;22.48;9.83;;;;;;;-16.51;62.17;99466.81;1807827;78;21068;-63
2021/01/18 05:39:32;;;;;;;23.15;11.20;;;;;;;-16.44;62.06;99471.43;1807859;79;21487;-63
2021/01/18 05:42:00;;;;;;;22.90;11.08;;;;;;;-16.46;61.78;99479.17;1807839;78;21081;-62
2021/01/18 05:44:36;;;;;;;30.97;14.40;;;;;;;-16.56;61.64;99480.96;1807850;79;21994;-62
2021/01/18 05:47:10;;;;;;;42.78;19.25;;;;;;;-16.58;61.77;99483.77;1807785;79;21116;-62
2021/01/18 05:49:49;;;;;;;38.53;17.75;;;;;;;-16.55;61.86;99492.27;1807681;78;21525;-62
2021/01/18 05:52:31;;;;;;;52.75;22.62;;;;;;;-16.54;61.71;99491.50;1807306;79;21746;-63
2021/01/18 05:55:20;;;;;;;56.80;23.27;;;;;;;-16.54;61.51;99490.64;1807985;79;21064;-63
2021/01/18 05:57:59;;;;;;;63.52;24.30;;;;;;;-16.60;60.92;99489.02;1807875;79;21360;-63
2021/01/18 06:00:35;;;;;;;59.93;24.50;;;;;;;-16.65;60.86;99496.21;1807665;79;21522;-63
2021/01/18 06:03:09;;;;;;;56.28;24.63;;;;;;;-16.61;60.80;99499.73;1807790;79;21584;-63
2021/01/18 06:05:41;;;;;;;67.25;28.23;;;;;;;-16.62;60.65;99495.52;1806510;78;21141;-64
2021/01/18 06:08:17;;;;;;;76.22;31.60;;;;;;;-16.62;60.66;99501.73;1805478;78;21157;-63
2021/01/18 06:10:48;;;;;;;89.72;33.33;;;;;;;-16.68;60.72;99502.61;1807024;78;21129;-63
2021/01/18 06:13:29;;;;;;;102.53;40.05;;;;;;;-16.66;60.73;99512.28;1807819;79;21078;-61
2021/01/18 06:16:10;;;;;;;64.65;28.20;;;;;;;-16.64;60.71;99515.73;1807764;78;21160;-62
2021/01/18 06:18:43;;;;;;;64.25;27.20;;;;;;;-16.69;60.66;99519.16;1807835;78;21058;-62
2021/01/18 06:21:18;;;;;;;89.87;35.75;;;;;;;-16.65;60.69;99514.02;1807852;78;21046;-65
2021/01/18 06:23:49;;;;;;;113.90;48.10;;;;;;;-16.56;60.53;99509.58;1807948;78;21362;-62
2021/01/18 06:26:28;;;;;;;121.82;49.50;;;;;;;-16.51;60.43;99521.95;1807553;79;21799;-62
2021/01/18 06:28:55;;;;;;;131.30;51.25;;;;;;;-16.53;60.29;99523.47;1778984;79;21153;-63
2021/01/18 06:31:24;;;;;;;136.03;54.53;;;;;;;-16.57;60.09;99522.78;1807324;78;21200;-62
2021/01/18 06:33:53;;;;;;;156.52;60.45;;;;;;;-16.64;60.15;99532.78;1741795;80;21592;-62
2021/01/18 06:36:25;;;;;;;145.75;57.13;;;;;;;-16.70;60.10;99527.39;1802329;79;21405;-62
2021/01/18 06:39:06;;;;;;;120.00;49.30;;;;;;;-16.68;60.32;99533.71;1807752;78;21100;-65
2021/01/18 06:41:38;;;;;;;120.77;47.75;;;;;;;-16.68;60.33;99529.98;1807629;78;21597;-61
2021/01/18 06:44:07;;;;;;;117.37;51.05;;;;;;;-16.66;60.50;99537.17;1807734;79;21545;-64
2021/01/18 06:46:37;;;;;;;118.42;49.45;;;;;;;-16.63;60.55;99544.45;1807736;78;21579;-62
2021/01/18 06:49:40;;;;;;;97.37;41.08;;;;;;;-16.56;60.65;99543.18;1807221;79;22299;-60
2021/01/18 06:52:08;;;;;;;104.97;42.73;;;;;;;-16.54;60.26;99541.66;1778740;79;21074;-61
2021/01/18 06:54:36;;;;;;;102.22;43.45;;;;;;;-16.57;60.19;99536.09;1778638;79;21548;-61
2021/01/18 06:57:34;;;;;;;93.15;41.30;;;;;;;-16.61;60.25;99542.04;1804325;78;22303;-63
2021/01/18 07:00:06;;;;;;;102.60;41.83;;;;;;;-16.65;60.40;99547.60;1735281;79;21574;-60
2021/01/18 07:02:39;;;;;;;88.75;39.50;;;;;;;-16.65;60.56;99552.58;1806370;78;21372;-58
2021/01/18 07:05:13;;;;;;;79.15;36.35;;;;;;;-16.65;60.71;99553.83;1806881;79;21085;-60
2021/01/18 07:07:41;;;;;;;76.22;33.18;;;;;;;-16.61;60.94;99551.99;1807831;78;21609;-65
2021/01/18 07:10:13;;;;;;;64.92;28.47;;;;;;;-16.53;61.28;99547.12;1753117;79;21597;-61
2021/01/18 07:12:42;;;;;;;75.08;29.15;;;;;;;-16.40;61.29;99563.36;1807410;78;26510;-61
2021/01/18 07:15:11;;;;;;;69.92;28.23;;;;;;;-16.37;61.40;99557.30;1807659;79;21252;-62
2021/01/18 07:17:51;;;;;;;65.67;27.10;;;;;;;-16.32;61.42;99555.12;1807389;78;21070;-61
2021/01/18 07:20:26;;;;;;;65.00;28.30;;;;;;;-16.32;61.41;99558.86;1807561;79;21515;-65
2021/01/18 07:23:14;;;;;;;50.43;24.55;;;;;;;-16.29;61.68;99553.70;1745834;82;21582;-63
2021/01/18 07:25:47;;;;;;;47.83;22.10;;;;;;;-16.11;61.94;99555.26;1740867;82;21582;-62
2021/01/18 07:28:19;;;;;;;58.68;24.90;;;;;;;-15.87;61.97;99561.80;1741629;81;21377;-62
2021/01/18 07:30:51;;;;;;;64.17;28.27;;;;;;;-15.68;61.72;99565.06;1754286;80;21188;-61
2021/01/18 07:33:19;;;;;;;99.00;36.07;;;;;;;-15.57;61.53;99570.70;1755590;80;21082;-63
2021/01/18 07:35:47;;;;;;;72.87;28.10;;;;;;;-15.46;61.73;99570.59;1755668;81;21084;-62
2021/01/18 07:38:21;;;;;;;69.92;27.85;;;;;;;-15.22;61.84;99562.51;1704724;81;21071;-63
2021/01/18 07:41:15;;;;;;;53.70;24.70;;;;;;;-14.97;61.66;99571.45;1755431;81;21369;-62
2021/01/18 07:43:45;;;;;;;53.85;24.70;;;;;;;-14.84;61.47;99566.05;1754276;81;21620;-64
2021/01/18 07:46:29;;;;;;;45.52;19.92;;;;;;;-14.64;61.24;99560.98;1754329;80;21602;-63
2021/01/18 07:49:30;;;;;;;57.98;28.30;;;;;;;-14.55;61.08;99565.64;1755254;80;21066;-64
2021/01/18 07:52:28;;;;;;;55.05;24.10;;;;;;;-14.43;60.94;99570.11;1654905;86;21575;-62
2021/01/18 07:54:57;;;;;;;43.10;20.92;;;;;;;-14.26;60.95;99576.05;1664047;86;22166;-61
2021/01/18 07:57:34;;;;;;;56.60;24.87;;;;;;;-14.18;60.67;99572.33;1663932;86;21182;-65
2021/01/18 08:00:26;;;;;;;33.15;15.28;;;;;;;-14.10;60.59;99572.00;1663950;86;21638;-63
2021/01/18 08:03:12;;;;;;;25.80;13.67;;;;;;;-14.00;60.63;99571.77;1664407;86;21591;-61
2021/01/18 08:05:42;;;;;;;35.38;15.85;;;;;;;-13.96;60.35;99563.64;1658739;86;21243;-61
2021/01/18 08:08:14;;;;;;;34.00;17.15;;;;;;;-14.03;60.25;99575.34;1663633;85;21400;-62
2021/01/18 08:11:07;;;;;;;38.80;17.87;;;;;;;-14.06;60.52;99576.80;1728928;81;21665;-60
2021/01/18 08:13:56;;;;;;;31.52;16.05;;;;;;;-13.94;60.65;99581.22;1754276;81;21149;-61
2021/01/18 08:16:40;;;;;;;27.50;14.85;;;;;;;-13.81;60.62;99581.54;1754201;80;21162;-61
2021/01/18 08:22:01;;;;;;;26.10;14.23;;;;;;;-13.37;60.49;99583.95;1815836;79;22622;-63
2021/01/18 08:24:35;;;;;;;28.17;15.00;;;;;;;-13.36;60.08;99583.18;1788912;80;20949;-60
2021/01/18 08:27:05;;;;;;;27.58;13.20;;;;;;;-13.25;60.09;99587.14;1786395;80;22121;-63
2021/01/18 08:29:53;;;;;;;25.97;12.55;;;;;;;-13.16;59.86;99586.75;1755456;81;21170;-61
2021/01/18 08:32:34;;;;;;;21.73;11.85;;;;;;;-13.17;59.76;99592.54;1757545;81;21107;-62
2021/01/18 08:35:22;;;;;;;23.12;12.10;;;;;;;-13.15;60.03;99589.34;1776622;80;21162;-61
2021/01/18 08:38:07;;;;;;;20.00;10.88;;;;;;;-13.16;59.78;99595.13;1757805;81;21052;-63
2021/01/18 08:40:44;;;;;;;17.80;10.08;;;;;;;-13.29;59.91;99597.76;1781539;80;21378;-66
2021/01/18 08:43:13;;;;;;;22.02;11.80;;;;;;;-13.38;59.90;99594.36;1788569;80;21077;-64
2021/01/18 08:45:53;;;;;;;20.27;11.12;;;;;;;-13.53;60.23;99592.66;1788574;80;21517;-65
2021/01/18 08:48:26;;;;;;;15.13;8.70;;;;;;;-13.57;60.55;99586.62;1788883;80;21064;-63
2021/01/18 08:50:55;;;;;;;21.52;11.38;;;;;;;-13.61;60.59;99585.62;1772020;80;21123;-62
2021/01/18 08:53:41;;;;;;;23.57;10.95;;;;;;;-13.67;60.82;99581.52;1727629;83;22373;-65
2021/01/18 08:56:29;;;;;;;19.52;9.75;;;;;;;-13.62;61.21;99578.89;1726894;83;21075;-63
2021/01/18 08:59:00;;;;;;;26.48;11.80;;;;;;;-13.49;61.41;99572.91;1725692;83;21210;-66
2021/01/18 09:01:31;;;;;;;27.07;12.90;;;;;;;-13.39;61.12;99580.55;1723663;83;21194;-64
2021/01/18 09:04:01;;;;;;;23.02;11.12;;;;;;;-13.40;61.19;99576.31;1726629;83;21095;-65
2021/01/18 09:06:30;;;;;;;23.40;11.25;;;;;;;-13.41;61.21;99587.09;1727577;83;21321;-61
2021/01/18 09:09:07;;;;;;;20.43;9.95;;;;;;;-13.42;61.10;99585.38;1727635;83;21503;-68
2021/01/18 09:11:37;;;;;;;19.55;9.55;;;;;;;-13.42;61.08;99574.12;1727670;83;21067;-65
2021/01/18 09:14:06;;;;;;;26.80;12.82;;;;;;;-13.49;60.96;99572.05;1699505;83;21150;-61
2021/01/18 09:16:36;;;;;;;25.08;12.73;;;;;;;-13.57;60.91;99570.75;1727493;82;21162;-67
2021/01/18 09:19:06;;;;;;;22.75;11.10;;;;;;;-13.61;60.97;99574.75;1677170;83;21547;-65
2021/01/18 09:21:36;;;;;;;22.42;11.25;;;;;;;-13.56;61.19;99573.73;1724201;83;25727;-63
2021/01/18 09:24:08;;;;;;;23.62;11.10;;;;;;;-13.50;61.25;99576.19;1722783;82;21176;-65
2021/01/18 09:26:36;;;;;;;18.52;10.30;;;;;;;-13.47;61.18;99578.00;1722940;83;21063;-62
2021/01/18 09:29:04;;;;;;;22.98;11.28;;;;;;;-13.53;60.96;99571.02;1722585;82;21154;-61
2021/01/18 09:31:33;;;;;;;25.77;11.05;;;;;;;-13.50;61.32;99566.57;1722881;82;21216;-63
2021/01/18 09:34:11;;;;;;;15.80;9.70;;;;;;;-13.45;61.31;99572.31;1722421;83;21169;-62
2021/01/18 09:36:43;;;;;;;20.37;10.00;;;;;;;-13.42;61.25;99565.36;1674630;83;21173;-62
2021/01/18 09:39:21;;;;;;;28.30;12.75;;;;;;;-13.39;61.05;99558.03;1722501;83;21075;-62
2021/01/18 09:41:54;;;;;;;23.83;11.88;;;;;;;-13.40;60.53;99558.41;1694767;83;21155;-61
2021/01/18 09:44:23;;;;;;;22.73;11.33;;;;;;;-13.38;60.42;99562.22;1722431;83;22130;-63
2021/01/18 09:46:51;;;;;;;18.55;10.30;;;;;;;-13.40;60.37;99560.91;1722086;83;21103;-63
2021/01/18 09:49:27;;;;;;;24.63;11.63;;;;;;;-13.37;60.40;99556.44;1722417;83;21075;-61
2021/01/18 09:51:56;;;;;;;27.98;14.07;;;;;;;-13.36;60.14;99559.02;1722411;82;21155;-63
2021/01/18 09:54:24;;;;;;;22.85;13.48;;;;;;;-13.32;60.23;99556.30;1696466;83;21217;-61
2021/01/18 09:56:53;;;;;;;22.87;11.65;;;;;;;-13.30;60.25;99553.50;1722481;83;21390;-63
2021/01/18 09:59:24;;;;;;;27.30;13.70;;;;;;;-13.25;59.98;99557.11;1696891;83;21586;-62
2021/01/18 10:01:53;;;;;;;22.85;12.07;;;;;;;-13.25;60.08;99553.36;1721552;83;21675;-62
2021/01/18 10:04:23;;;;;;;23.02;10.10;;;;;;;-13.20;60.09;99551.11;1721499;83;21174;-68
2021/01/18 10:06:51;;;;;;;18.48;10.88;;;;;;;-13.14;59.87;99551.37;1696455;83;21193;-62
2021/01/18 10:09:24;;;;;;;23.25;12.20;;;;;;;-13.10;59.73;99555.77;1696058;83;21502;-63
2021/01/18 10:11:51;;;;;;;27.15;12.93;;;;;;;-13.11;59.88;99551.55;1696791;83;21512;-61
2021/01/18 10:14:22;;;;;;;22.00;11.33;;;;;;;-13.10;59.89;99553.27;1673356;83;21508;-63
2021/01/18 10:17:05;;;;;;;25.27;12.50;;;;;;;-13.10;59.89;99552.02;1719672;83;21437;-63
2021/01/18 10:19:38;;;;;;;18.10;9.20;;;;;;;-13.13;59.78;99553.97;1718839;83;21214;-62
2021/01/18 10:22:16;;;;;;;22.82;11.10;;;;;;;-13.16;58.92;99545.07;1714275;83;21390;-62
2021/01/18 10:24:55;;;;;;;19.87;10.20;;;;;;;-13.26;59.38;99547.49;1711054;83;21142;-64
2021/01/18 10:27:29;;;;;;;19.52;10.48;;;;;;;-13.29;59.67;99543.57;1708766;82;21209;-63
2021/01/18 10:30:14;;;;;;;20.62;9.40;;;;;;;-13.28;59.22;99544.44;1706775;84;21257;-63
2021/01/18 10:32:51;;;;;;;20.70;10.75;;;;;;;-13.30;58.89;99542.23;1670005;85;21227;-62
2021/01/18 10:35:31;;;;;;;18.45;10.40;;;;;;;-13.33;59.11;99545.82;1671358;85;22372;-63
2021/01/18 10:38:18;;;;;;;20.57;10.90;;;;;;;-13.22;59.48;99541.41;1670332;84;21622;-63
2021/01/18 10:41:04;;;;;;;19.25;10.03;;;;;;;-13.08;59.16;99531.69;1670387;85;21170;-63
2021/01/18 10:43:34;;;;;;;17.23;8.98;;;;;;;-13.00;58.76;99534.21;1669334;85;21238;-63
2021/01/18 10:46:03;;;;;;;20.85;10.78;;;;;;;-12.94;58.64;99536.63;1672920;84;21635;-63
2021/01/18 10:48:33;;;;;;;19.30;10.65;;;;;;;-12.86;57.94;99534.52;1651293;85;21461;-62
2021/01/18 10:51:02;;;;;;;18.98;9.70;;;;;;;-12.89;57.84;99528.10;1670761;85;21182;-64
2021/01/18 10:53:32;;;;;;;19.32;9.80;;;;;;;-12.91;57.77;99531.77;1671288;84;21202;-63
2021/01/18 10:56:15;;;;;;;16.80;7.72;;;;;;;-12.89;56.79;99531.47;1672815;84;21170;-63
2021/01/18 10:58:43;;;;;;;15.83;9.10;;;;;;;-12.90;56.14;99527.63;1672849;84;21667;-62
2021/01/18 11:01:13;;;;;;;18.27;9.40;;;;;;;-12.91;56.46;99520.90;1669997;85;22285;-63
2021/01/18 11:03:42;;;;;;;18.92;9.08;;;;;;;-12.81;56.95;99526.00;1669076;84;21218;-63
2021/01/18 11:06:14;;;;;;;18.57;9.25;;;;;;;-12.73;56.74;99519.72;1671380;85;21210;-63
2021/01/18 11:08:43;;;;;;;;;;;;;;;-12.70;57.06;99524.50;1675058;84;21159;-62
2021/01/18 11:11:24;;;;;;;13.28;7.22;;;;;;;-12.66;55.95;99531.39;1677891;82;21679;-62
2021/01/18 11:14:04;;;;;;;20.72;9.88;;;;;;;-12.59;55.84;99520.05;1714572;83;22276;-63
2021/01/18 11:16:33;;;;;;;15.70;9.33;;;;;;;-12.45;56.33;99523.23;1730384;82;21167;-63
2021/01/18 11:19:05;;;;;;;15.72;8.90;;;;;;;-12.34;55.74;99523.36;1742919;82;21179;-63
2021/01/18 11:21:33;;;;;;;13.70;7.42;;;;;;;-12.34;55.63;99521.71;1744039;82;21127;-62
2021/01/18 11:24:01;;;;;;;15.00;8.20;;;;;;;-12.40;55.29;99515.56;1744118;82;21083;-63
2021/01/18 11:26:29;;;;;;;18.37;8.78;;;;;;;-12.49;55.11;99519.70;1743984;82;21365;-62
2021/01/18 11:28:56;;;;;;;16.30;9.40;;;;;;;-12.56;55.12;99512.66;1744024;82;21096;-64
2021/01/18 11:31:24;;;;;;;17.77;8.58;;;;;;;-12.60;55.54;99507.91;1744077;82;21189;-63
2021/01/18 11:33:53;;;;;;;20.30;9.28;;;;;;;-12.58;55.55;99512.58;1744033;82;21223;-62
2021/01/18 11:36:25;;;;;;;13.60;8.03;;;;;;;-12.57;55.01;99511.80;1744042;82;21080;-62
2021/01/18 11:38:53;;;;;;;18.62;9.00;;;;;;;-12.59;55.28;99512.11;1743018;82;21214;-62
2021/01/18 11:41:23;;;;;;;14.15;7.85;;;;;;;-12.56;55.58;99512.27;1742420;82;21140;-65
2021/01/18 11:43:53;;;;;;;18.17;9.15;;;;;;;-12.53;55.43;99509.06;1738527;82;21191;-63